Terminal Aerodrome Forecast
Issued by NWS

Home | Current Version | Previous Version | Text Only | Print | Product List | Glossary On
Versions: 1 2 3 4 5 6 7 8 9 10 11 12 13 14 15 16 17
000
FTUS46 KMTR 230536
TAFSJC
TAF
KSJC 230536Z 2306/2406 28007KT P6SM FEW014
     FM230900 VRB02KT P6SM FEW014
     FM231100 00000KT P6SM BKN012
     FM231600 VRB03KT P6SM SKC
     FM231900 30009KT P6SM SKC
     FM240500 28005KT P6SM SKC=

USA.gov is the U.S. government's official web portal to all federal, state and local government web resources and services.